createdAt,value
2018-01-01T00:01:41.441Z,345.53
2018-01-01T00:06:49.733Z,285.47
2018-01-01T00:11:58.426Z,234.53
2018-01-01T00:17:03.924Z,290.00
2018-01-01T00:22:10.148Z,200.27
2018-01-01T00:32:26.547Z,223.43
2018-01-01T00:37:31.290Z,184.83
2018-01-01T00:42:37.042Z,158.43
2018-01-01T00:47:46.237Z,156.30
2018-01-01T00:52:59.302Z,137.37
2018-01-01T00:58:02.967Z,110.03
2018-01-01T01:08:43.499Z,111.43
2018-01-01T01:13:48.748Z,102.17
2018-01-01T01:18:55.512Z,90.57
2018-01-01T01:24:08.016Z,103.07
2018-01-01T01:29:12.235Z,76.67
2018-01-01T01:34:17.401Z,70.93
2018-01-01T01:39:23.678Z,71.97
2018-01-01T01:44:31.460Z,67.23
2018-01-01T01:49:37.845Z,73.03
2018-01-01T01:54:43.106Z,72.23
2018-01-01T01:59:49.652Z,72.97
2018-01-01T02:10:07.315Z,74.60
2018-01-01T02:15:12.998Z,75.67
2018-01-01T02:20:22.642Z,84.27
2018-01-01T02:25:34.682Z,85.40
2018-01-01T02:30:42.782Z,99.33
2018-01-01T02:35:51.436Z,96.70
2018-01-01T02:40:55.931Z,83.63
2018-01-01T02:51:12.847Z,99.97
2018-01-01T03:01:24.690Z,93.57
2018-01-01T03:06:35.894Z,99.97
2018-01-01T03:11:40.730Z,101.37
2018-01-01T03:16:48.692Z,125.20
2018-01-01T03:21:52.898Z,94.07
2018-01-01T03:27:04.583Z,85.53
2018-01-01T03:32:12.226Z,71.10
2018-01-01T03:37:22.020Z,69.43
2018-01-01T03:42:28.107Z,80.10
2018-01-01T03:47:40.134Z,76.23
2018-01-01T03:52:45.576Z,83.03
2018-01-01T03:57:55.453Z,85.43
2018-01-01T04:08:18.716Z,75.77
2018-01-01T04:13:27.694Z,78.03
2018-01-01T04:24:00.217Z,94.10
2018-01-01T04:29:06.835Z,79.30
2018-01-01T04:34:15.959Z,91.03
2018-01-01T04:39:21.144Z,94.40
2018-01-01T04:44:34.361Z,84.83
2018-01-01T04:49:43.360Z,83.83
2018-01-01T04:54:50.375Z,82.73
2018-01-01T04:59:56.619Z,85.53
2018-01-01T05:05:06.406Z,73.67
2018-01-01T05:10:21.647Z,70.00
2018-01-01T05:15:35.451Z,67.53
2018-01-01T05:20:42.356Z,67.40
2018-01-01T05:25:53.999Z,69.37
2018-01-01T05:30:57.657Z,75.17
2018-01-01T05:36:02.824Z,73.50
2018-01-01T05:41:10.108Z,65.73
2018-01-01T05:46:16.896Z,60.60
2018-01-01T05:51:25.754Z,50.83
2018-01-01T06:01:40.877Z,44.87
2018-01-01T06:12:18.039Z,35.27
2018-01-01T06:17:33.035Z,32.17
2018-01-01T06:22:43.208Z,31.43
2018-01-01T06:27:47.770Z,34.17
2018-01-01T06:32:58.810Z,18.57
2018-01-01T06:38:06.622Z,19.00
2018-01-01T06:43:15.856Z,20.33
2018-01-01T06:48:28.118Z,19.20
2018-01-01T06:53:34.104Z,12.90
2018-01-01T06:58:36.762Z,12.93
2018-01-01T07:03:39.307Z,11.47
2018-01-01T07:08:42.601Z,10.07
2018-01-01T07:13:45.906Z,6.67
2018-01-01T07:18:48.446Z,7.63
2018-01-01T07:23:51.749Z,8.70
2018-01-01T07:28:54.265Z,6.63
2018-01-01T07:33:56.805Z,6.10
2018-01-01T07:38:59.346Z,5.40
2018-01-01T07:44:08.109Z,6.47
2018-01-01T07:54:36.068Z,8.40
2018-01-01T07:59:40.860Z,3.40
2018-01-01T08:04:51.413Z,4.93
2018-01-01T08:09:55.621Z,2.37
2018-01-01T08:15:04.783Z,4.23
2018-01-01T08:20:10.158Z,2.00
2018-01-01T08:25:18.002Z,1.53
2018-01-01T08:30:29.259Z,1.40
2018-01-01T08:35:47.688Z,1.00
2018-01-01T08:40:58.650Z,2.07
2018-01-01T08:51:15.516Z,0.90
2018-01-01T08:56:21.881Z,6.00
2018-01-01T09:06:38.475Z,6.93
2018-01-01T09:11:44.211Z,1.60
2018-01-01T09:32:31.534Z,2.70
2018-01-01T09:42:59.222Z,4.53
2018-01-01T09:48:05.764Z,4.47
2018-01-01T09:53:14.079Z,1.87
2018-01-01T09:58:22.430Z,3.90
2018-01-01T10:03:32.566Z,1.73
2018-01-01T10:08:38.981Z,1.20
2018-01-01T10:13:44.558Z,0.77
2018-01-01T10:18:49.152Z,5.60
2018-01-01T10:23:51.778Z,1.23
2018-01-01T10:28:54.328Z,2.93
2018-01-01T10:33:56.858Z,7.77
2018-01-01T10:38:59.411Z,11.53
2018-01-01T10:44:01.966Z,4.80
2018-01-01T10:49:10.555Z,1.20
2018-01-01T10:54:17.026Z,6.50
2018-01-01T11:09:52.473Z,1.03
2018-01-01T11:15:03.423Z,1.20
2018-01-01T11:25:22.669Z,3.70
2018-01-01T11:30:27.519Z,2.67
2018-01-01T11:35:31.935Z,5.43
2018-01-01T11:40:39.984Z,4.87
2018-01-01T11:45:46.926Z,2.70
2018-01-01T11:50:55.832Z,1.53
2018-01-01T11:56:04.444Z,0.90
2018-01-01T12:01:08.689Z,2.97
2018-01-01T12:06:16.181Z,5.03
2018-01-01T12:11:22.700Z,4.93
2018-01-01T12:16:29.516Z,5.93
2018-01-01T12:21:38.032Z,4.53
2018-01-01T12:26:47.107Z,1.23
2018-01-01T12:31:52.105Z,1.50
2018-01-01T12:37:03.600Z,4.97
2018-01-01T12:42:06.807Z,3.40
2018-01-01T12:47:09.342Z,5.57
2018-01-01T12:52:18.419Z,2.83
2018-01-01T12:57:24.510Z,1.53
2018-01-01T13:02:31.362Z,7.07
2018-01-01T13:07:41.940Z,2.83
2018-01-01T13:12:48.660Z,1.37
2018-01-01T13:17:57.420Z,3.13
2018-01-01T13:23:03.769Z,8.73
2018-01-01T13:28:08.407Z,4.53
2018-01-01T13:33:18.944Z,6.03
2018-01-01T13:38:28.400Z,4.30
2018-01-01T13:43:37.717Z,3.53
2018-01-01T13:48:49.186Z,3.73
2018-01-01T13:59:07.364Z,3.73
2018-01-01T14:04:13.205Z,5.50
2018-01-01T14:09:21.278Z,2.90
2018-01-01T14:14:26.403Z,3.03
2018-01-01T14:19:37.445Z,9.80
2018-01-01T14:24:42.440Z,1.90
2018-01-01T14:29:49.817Z,6.50
2018-01-01T14:35:00.884Z,4.00
2018-01-01T14:40:13.382Z,3.17
2018-01-01T14:45:19.181Z,2.80
2018-01-01T14:50:29.133Z,9.50
2018-01-01T14:55:37.018Z,2.43
2018-01-01T15:00:44.230Z,4.90
2018-01-01T15:05:46.935Z,6.10
2018-01-01T15:10:50.241Z,1.83
2018-01-01T15:15:58.337Z,7.30
2018-01-01T15:21:05.474Z,4.63
2018-01-01T15:26:16.311Z,9.43
2018-01-01T15:31:28.635Z,1.43
2018-01-01T15:36:36.944Z,1.03
2018-01-01T15:41:41.753Z,4.53
2018-01-01T15:46:48.189Z,6.13
2018-01-01T15:51:53.404Z,4.80
2018-01-01T15:57:00.321Z,3.40
2018-01-01T16:07:23.524Z,5.70
2018-01-01T16:12:34.198Z,4.50
2018-01-01T16:17:39.472Z,8.73
2018-01-01T16:22:49.589Z,13.87
2018-01-01T16:28:01.299Z,4.83
2018-01-01T16:33:08.767Z,9.80
2018-01-01T16:38:18.460Z,15.20
2018-01-01T16:43:24.392Z,9.20
2018-01-01T16:48:26.934Z,8.60
2018-01-01T16:53:29.490Z,11.67
2018-01-01T16:58:32.023Z,7.43
2018-01-01T17:03:34.555Z,11.10
2018-01-01T17:08:37.114Z,10.07
2018-01-01T17:13:48.416Z,7.70
2018-01-01T17:18:53.958Z,10.23
2018-01-01T17:23:57.869Z,9.37
2018-01-01T17:29:02.548Z,9.90
2018-01-01T17:39:23.730Z,9.50
2018-01-01T17:44:31.665Z,6.13
2018-01-01T17:49:38.833Z,9.50
2018-01-01T17:54:44.408Z,18.37
2018-01-01T17:59:52.480Z,6.63
2018-01-01T18:05:01.429Z,6.93
2018-01-01T18:10:05.912Z,10.83
2018-01-01T18:15:12.129Z,8.60
2018-01-01T18:20:20.138Z,17.87
2018-01-01T18:25:24.976Z,5.30
2018-01-01T18:30:31.339Z,6.10
2018-01-01T18:35:43.251Z,11.10
2018-01-01T18:40:52.814Z,6.77
2018-01-01T18:45:59.961Z,3.63
2018-01-01T18:51:11.559Z,8.47
2018-01-01T18:56:14.123Z,3.00
2018-01-01T19:01:16.662Z,3.77
2018-01-01T19:06:19.212Z,10.63
2018-01-01T19:11:22.526Z,17.83
2018-01-01T19:16:25.082Z,12.53
2018-01-01T19:21:27.628Z,14.37
2018-01-01T19:26:30.932Z,8.77
2018-01-01T19:31:33.462Z,9.17
2018-01-01T19:36:36.190Z,20.20
2018-01-01T19:41:45.134Z,5.53
2018-01-01T19:46:49.047Z,11.57
2018-01-01T19:51:51.751Z,7.70
2018-01-01T19:56:54.285Z,5.50
2018-01-01T20:01:56.818Z,6.00
2018-01-01T20:06:59.357Z,12.27
2018-01-01T20:12:01.915Z,8.63
2018-01-01T20:17:04.451Z,12.37
2018-01-01T20:22:06.990Z,7.87
2018-01-01T20:27:09.534Z,5.10
2018-01-01T20:32:12.067Z,6.20
2018-01-01T20:37:14.604Z,9.17
2018-01-01T20:42:17.143Z,9.80
2018-01-01T20:47:19.670Z,8.27
2018-01-01T20:52:22.215Z,5.93
2018-01-01T20:57:24.746Z,5.87
2018-01-01T21:02:27.282Z,9.33
2018-01-01T21:07:29.814Z,5.20
2018-01-01T21:12:32.350Z,2.13
2018-01-01T21:17:34.891Z,2.07
2018-01-01T21:22:38.190Z,2.60
2018-01-01T21:27:40.738Z,1.77
2018-01-01T21:32:43.278Z,5.10
2018-01-01T21:37:45.806Z,4.20
2018-01-01T21:42:49.106Z,1.23
2018-01-01T21:47:51.668Z,3.60
2018-01-01T21:52:54.198Z,5.30
2018-01-01T21:57:56.724Z,1.20
2018-01-01T22:03:00.028Z,1.77
2018-01-01T22:08:02.558Z,5.43
2018-01-01T22:13:05.094Z,5.13
2018-01-01T22:18:07.641Z,2.77
2018-01-01T22:23:10.937Z,4.40
2018-01-01T22:28:13.477Z,1.20
2018-01-01T22:33:16.011Z,3.37
2018-01-01T22:38:18.542Z,2.70
2018-01-01T22:43:21.082Z,2.23
2018-01-01T22:48:23.642Z,3.90
2018-01-01T22:53:26.944Z,2.50
2018-01-01T22:58:30.263Z,1.90
2018-01-01T23:03:32.782Z,3.50
2018-01-01T23:08:35.318Z,2.20
2018-01-01T23:13:37.838Z,1.20
2018-01-01T23:18:40.378Z,2.07
2018-01-01T23:23:42.914Z,1.50
2018-01-01T23:28:45.450Z,1.33
2018-01-01T23:33:47.991Z,4.00
2018-01-01T23:38:50.517Z,1.27
2018-01-01T23:43:53.065Z,3.83
2018-01-01T23:48:56.358Z,1.57
2018-01-01T23:53:59.674Z,1.80
2018-01-01T23:59:02.975Z,1.97
